Air Resources Laboratory banner image
Air Resources Laboratory web site National Oceanic and Atmospheric Administration (NOAA)

ma metar


KACK 190453Z AUTO 00000KT 10SM CLR M02/M02 A3055 RMK AO2 SLP346 I1000 T10221022
 400611033 TSNO $=
KAQW 190452Z AUTO 00000KT 10SM CLR M09/M11 A3047 RMK AO2 SLP330 I1000 T10941106
 400221100=
KBAF 190453Z AUTO 00000KT 10SM CLR M06/M06 A3052 RMK AO2 SLP341 T10561061
 400441056=
KBED 190456Z AUTO 00000KT 10SM CLR M06/M07 A3053 RMK AO2 SLP354 T10561072
 400611056=
KBOS 190454Z 16004KT 10SM SCT250 01/M06 A3055 RMK AO2 SLP343 T00111056
 400670000=
KBVY 190453Z AUTO 17003KT 10SM CLR M03/M07 A3053 RMK AO2 SLP334 T10331067
 400561044=
KCEF 190456Z AUTO 00000KT 10SM CLR M06/M08 A3051 RMK AO2 SLP341 T10561077
 400511063=
KCQX 190452Z AUTO 00000KT 10SM CLR M02/M03 A3056 RMK AO2 SLP349 I1000 T10221028
 400561022 TSNO=
KEWB 190453Z AUTO 00000KT 10SM CLR M02/M04 A3055 RMK AO2 SLP345 T10221039
 400721033=
KFIT 190452Z AUTO 00000KT 9SM CLR M06/M08 A3053 RMK AO2 SLP343 T10561078
 400671061 TSNO=
KFMH 190455Z AUTO 00000KT 10SM CLR M05/M06 A3056 RMK AO2=
KHYA 190456Z AUTO 00000KT 10SM CLR M03/M05 A3054 RMK AO2 SLP345 I1000 T10331050
 400611039=
KLWM 190454Z AUTO 17003KT 10SM CLR M04/M07 A3054 RMK AO2 SLP343 T10391072
 400671044=
KMQE 190456Z AUTO 29005KT M01/M06 A3050 RMK AO1 SLP346 T10061061 400501017=
KORE 190452Z AUTO 00000KT 9SM CLR M06/M07 A3051 RMK AO2 SLP339 I1001 T10611067
 400501072=
KORH 190454Z 26004KT 10SM CLR M02/M08 A3049 RMK AO2 SLP338 T10221078 400391033=
KOWD 190453Z AUTO 00000KT 10SM CLR M04/M06 A3055 RMK AO2 SLP345 I1000 T10391056
 400781044=
KPSF 190454Z AUTO 00000KT 10SM CLR M07/M11 A3044 RMK AO2 SLP324 T10721106
 400061083=
KPVC 190456Z AUTO 00000KT 10SM CLR M04/M05 A3056 RMK AO2 SLP348 T10391050
 400501039 FZRANO=
KPYM 190452Z AUTO 00000KT 10SM CLR M04/M05 A3055 RMK AO2 SLP348 I1000 T10391050
 400721039 TSNO=
KTAN 190452Z AUTO 00000KT 8SM CLR M04/M06 A3055 RMK AO2 SLP344 I1001 T10391056
 400721044=